createdAt,value
2019-04-28T04:31:06.581Z,8.00
2019-04-28T04:33:34.608Z,7.80
2019-04-28T04:36:02.603Z,7.80
2019-04-28T04:38:31.668Z,8.00
2019-04-28T04:41:01.929Z,8.00
2019-04-28T04:43:31.225Z,7.60
2019-04-28T04:46:14.130Z,7.90
2019-04-28T04:48:43.361Z,8.00
2019-04-28T04:51:20.968Z,8.40
2019-04-28T04:54:20.894Z,8.40
2019-04-28T04:57:40.691Z,8.30
2019-04-28T04:59:33.793Z,8.10
2019-04-28T05:02:34.346Z,8.50
2019-04-28T05:08:15.528Z,9.00
2019-04-28T05:10:42.822Z,9.10
2019-04-28T05:13:12.123Z,9.00
2019-04-28T05:15:41.115Z,9.20
2019-04-28T05:18:10.264Z,9.20
2019-04-28T05:23:56.022Z,9.10
2019-04-28T05:26:30.056Z,9.20
2019-04-28T05:28:59.524Z,9.70
2019-04-28T05:31:29.733Z,9.50
2019-04-28T05:33:59.916Z,9.10
2019-04-28T05:36:40.760Z,9.00
2019-04-28T05:39:05.831Z,9.00
2019-04-28T05:41:34.730Z,8.70
2019-04-28T05:44:11.565Z,8.80
2019-04-28T05:46:40.278Z,8.60
2019-04-28T05:49:11.082Z,8.60
2019-04-28T05:52:11.845Z,8.50
2019-04-28T05:54:32.489Z,8.70
2019-04-28T05:57:02.602Z,8.80
2019-04-28T05:59:50.564Z,8.90
2019-04-28T06:02:21.915Z,9.00
2019-04-28T06:05:01.071Z,9.20
2019-04-28T06:07:32.231Z,9.60
2019-04-28T06:10:00.302Z,9.80
2019-04-28T06:15:39.733Z,9.80
2019-04-28T06:18:07.740Z,9.90
2019-04-28T06:20:35.827Z,9.70
2019-04-28T06:23:03.931Z,9.40
2019-04-28T06:25:31.943Z,9.30
2019-04-28T06:27:59.989Z,9.10
2019-04-28T06:30:28.061Z,9.40
2019-04-28T06:33:07.189Z,9.80
2019-04-28T06:35:25.809Z,9.50
2019-04-28T06:37:53.814Z,9.20
2019-04-28T06:40:21.785Z,9.30
2019-04-28T06:42:49.961Z,9.60
2019-04-28T06:45:18.106Z,9.50
2019-04-28T06:47:46.134Z,9.60
2019-04-28T06:50:14.242Z,9.60
2019-04-28T06:52:42.255Z,9.30
2019-04-28T06:55:10.225Z,9.30
2019-04-28T06:57:38.333Z,9.40
2019-04-28T07:00:07.361Z,9.60
2019-04-28T07:02:35.906Z,9.40
2019-04-28T07:05:05.306Z,9.40
2019-04-28T07:07:33.482Z,9.20
2019-04-28T07:10:01.706Z,9.10
2019-04-28T07:12:29.831Z,9.30
2019-04-28T07:14:57.869Z,9.50
2019-04-28T07:17:25.861Z,9.40
2019-04-28T07:20:04.270Z,9.20
2019-04-28T07:22:33.049Z,9.00
2019-04-28T07:25:01.026Z,9.00
2019-04-28T07:27:29.033Z,9.00
2019-04-28T07:29:57.015Z,8.80
2019-04-28T07:32:25.306Z,8.80
2019-04-28T07:34:53.341Z,8.90
2019-04-28T07:37:21.330Z,8.90
2019-04-28T07:39:49.305Z,9.20
2019-04-28T07:42:17.301Z,9.10
2019-04-28T07:44:45.354Z,9.20
2019-04-28T07:47:13.434Z,9.30
2019-04-28T07:49:41.435Z,9.30
2019-04-28T07:52:11.215Z,9.70
2019-04-28T07:54:40.176Z,9.60
2019-04-28T07:57:08.285Z,9.80
2019-04-28T07:59:36.305Z,9.80
2019-04-28T08:02:04.453Z,9.60
2019-04-28T08:04:32.571Z,9.50
2019-04-28T08:07:00.604Z,9.50
2019-04-28T08:09:28.585Z,9.80
2019-04-28T08:11:56.564Z,10.00
2019-04-28T08:14:24.553Z,10.10
2019-04-28T08:16:52.554Z,10.10
2019-04-28T08:19:20.546Z,10.30
2019-04-28T08:21:48.527Z,10.10
2019-04-28T08:24:16.538Z,10.20
2019-04-28T08:26:44.601Z,10.10
2019-04-28T08:29:12.576Z,9.50
2019-04-28T08:31:42.191Z,9.40
2019-04-28T08:34:11.976Z,9.50
2019-04-28T08:36:40.030Z,9.80
2019-04-28T08:39:08.077Z,9.60
2019-04-28T08:41:36.071Z,9.70
2019-04-28T08:44:04.054Z,9.90
2019-04-28T08:46:32.127Z,10.00
2019-04-28T08:49:00.149Z,10.20
2019-04-28T08:51:28.230Z,10.00
2019-04-28T08:53:56.330Z,10.00
2019-04-28T08:56:24.390Z,10.10
2019-04-28T08:58:52.391Z,9.50
2019-04-28T09:01:20.660Z,9.00
2019-04-28T09:03:48.723Z,9.10
2019-04-28T09:06:16.699Z,9.20
2019-04-28T09:08:44.731Z,9.50
2019-04-28T09:11:12.719Z,9.80
2019-04-28T09:13:43.681Z,10.20
2019-04-28T09:16:10.529Z,10.60
2019-04-28T09:18:38.543Z,10.70
2019-04-28T09:21:06.566Z,10.90
2019-04-28T09:23:34.659Z,10.80
2019-04-28T09:26:02.732Z,11.10
2019-04-28T09:28:30.810Z,11.40
2019-04-28T09:30:58.889Z,11.60
2019-04-28T09:33:26.909Z,11.70
2019-04-28T09:35:54.994Z,11.60
2019-04-28T09:38:22.980Z,12.10
2019-04-28T09:40:51.019Z,12.00
2019-04-28T09:43:23.569Z,12.20
2019-04-28T09:45:53.215Z,12.20
2019-04-28T09:48:21.285Z,12.60
2019-04-28T09:50:49.298Z,12.20
2019-04-28T09:53:17.304Z,12.40
2019-04-28T09:55:45.386Z,12.30
2019-04-28T09:58:13.478Z,12.60
2019-04-28T10:00:41.566Z,12.40
2019-04-28T10:03:09.565Z,11.30
2019-04-28T10:05:37.560Z,10.00
2019-04-28T10:08:05.606Z,9.10
2019-04-28T10:10:33.648Z,8.40
2019-04-28T10:13:01.641Z,8.10
2019-04-28T10:15:29.627Z,7.80
2019-04-28T10:17:57.610Z,7.40
2019-04-28T10:20:25.603Z,7.30
2019-04-28T10:22:53.730Z,7.50
2019-04-28T10:25:21.924Z,7.90
2019-04-28T10:27:49.976Z,8.10
2019-04-28T10:30:18.049Z,8.70
2019-04-28T10:32:46.037Z,9.00
2019-04-28T10:35:14.107Z,9.20
2019-04-28T10:37:42.104Z,9.90
2019-04-28T10:40:20.854Z,10.20
2019-04-28T10:42:48.849Z,10.60
2019-04-28T10:45:18.781Z,11.20
2019-04-28T10:47:46.915Z,11.40
2019-04-28T10:50:21.372Z,11.00
2019-04-28T10:52:50.686Z,11.40
2019-04-28T10:55:20.097Z,11.40
2019-04-28T10:57:48.908Z,11.20
2019-04-28T11:00:18.958Z,11.40
2019-04-28T11:02:47.019Z,11.60
2019-04-28T11:05:32.995Z,11.70
2019-04-28T11:08:02.236Z,11.40
2019-04-28T11:10:30.245Z,11.50
2019-04-28T11:12:58.303Z,11.50
2019-04-28T11:15:37.194Z,11.40
2019-04-28T11:18:07.094Z,11.40
2019-04-28T11:20:35.924Z,11.30
2019-04-28T11:23:04.074Z,11.60
2019-04-28T11:25:32.095Z,11.80
2019-04-28T11:28:00.366Z,12.10
2019-04-28T11:30:30.287Z,11.90
2019-04-28T11:33:16.515Z,11.80
2019-04-28T11:35:46.409Z,12.20
2019-04-28T11:38:15.671Z,12.50
2019-04-28T11:40:45.780Z,12.70
2019-04-28T11:43:15.086Z,12.90
2019-04-28T11:45:43.789Z,13.10
2019-04-28T11:48:13.343Z,13.20
2019-04-28T11:50:41.846Z,13.20
2019-04-28T11:53:12.426Z,13.40
2019-04-28T11:55:41.945Z,13.40
2019-04-28T11:58:11.639Z,13.50
2019-04-28T12:00:40.818Z,13.60
2019-04-28T12:03:09.113Z,13.70
2019-04-28T12:05:40.006Z,13.90
2019-04-28T12:08:13.284Z,13.60
2019-04-28T12:10:47.581Z,13.70
2019-04-28T12:13:17.727Z,13.90
2019-04-28T12:16:06.111Z,13.80
2019-04-28T12:18:56.227Z,14.30
2019-04-28T12:21:26.696Z,14.20
2019-04-28T12:23:56.482Z,13.70
2019-04-28T12:26:27.019Z,13.40
2019-04-28T12:28:55.347Z,13.60
2019-04-28T12:31:24.047Z,13.50
2019-04-28T12:33:52.387Z,13.30
2019-04-28T12:36:21.374Z,13.00
2019-04-28T12:38:52.710Z,12.30
2019-04-28T12:41:21.359Z,12.40
2019-04-28T12:43:49.768Z,12.10
2019-04-28T12:46:18.246Z,11.60
2019-04-28T12:48:46.854Z,10.30
2019-04-28T12:51:15.967Z,9.50
2019-04-28T12:53:44.349Z,9.00
2019-04-28T12:56:12.888Z,8.70
2019-04-28T12:58:41.112Z,8.80
2019-04-28T13:01:13.562Z,8.80
2019-04-28T13:03:43.311Z,8.90
2019-04-28T13:06:12.957Z,9.10
2019-04-28T13:08:41.547Z,9.00
2019-04-28T13:11:09.968Z,9.00
2019-04-28T13:13:38.033Z,9.10
2019-04-28T13:16:06.182Z,9.50
2019-04-28T13:18:34.278Z,9.30
2019-04-28T13:21:02.343Z,9.20
2019-04-28T13:23:30.467Z,9.70
2019-04-28T13:25:58.703Z,9.90
2019-04-28T13:28:28.718Z,10.00
2019-04-28T13:30:57.088Z,10.60
2019-04-28T13:33:25.186Z,11.20
2019-04-28T13:35:53.276Z,11.60
2019-04-28T13:38:21.369Z,11.80
2019-04-28T13:40:50.109Z,12.00
2019-04-28T13:43:18.309Z,12.00
2019-04-28T13:45:47.182Z,12.00
2019-04-28T13:48:15.929Z,12.10
2019-04-28T13:50:45.383Z,12.20
2019-04-28T13:53:13.726Z,12.10
2019-04-28T13:55:43.724Z,12.30
2019-04-28T13:58:12.575Z,12.30
2019-04-28T14:00:42.874Z,12.20
2019-04-28T14:03:21.753Z,12.10
2019-04-28T14:06:00.391Z,12.30
2019-04-28T14:08:28.592Z,12.30
2019-04-28T14:10:56.834Z,12.30
2019-04-28T14:13:25.014Z,12.50
2019-04-28T14:15:53.200Z,12.60
2019-04-28T14:18:21.337Z,12.70
2019-04-28T14:20:49.760Z,12.90
2019-04-28T14:23:17.964Z,12.70
2019-04-28T14:25:46.265Z,12.60
2019-04-28T14:28:14.785Z,12.70
2019-04-28T14:30:42.970Z,12.70
2019-04-28T14:33:11.281Z,12.90
2019-04-28T14:35:39.652Z,12.80
2019-04-28T14:38:10.395Z,12.70
2019-04-28T14:40:38.700Z,12.70
2019-04-28T14:43:07.078Z,12.70
2019-04-28T14:45:35.278Z,12.90
2019-04-28T14:48:03.427Z,13.20
2019-04-28T14:50:31.819Z,13.20
2019-04-28T14:53:00.156Z,12.90
2019-04-28T14:55:28.349Z,13.10
2019-04-28T14:57:56.531Z,13.30
2019-04-28T15:00:32.247Z,13.30
2019-04-28T15:03:04.860Z,12.80
2019-04-28T15:05:39.233Z,13.00
2019-04-28T15:08:17.936Z,13.00
2019-04-28T15:10:47.818Z,13.30
2019-04-28T15:13:16.902Z,13.00
2019-04-28T15:15:45.020Z,12.70
2019-04-28T15:18:13.184Z,12.80
2019-04-28T15:20:41.275Z,13.20
2019-04-28T15:23:09.360Z,13.10
2019-04-28T15:25:37.460Z,13.50
2019-04-28T15:28:05.489Z,13.70
2019-04-28T15:30:33.612Z,13.80
2019-04-28T15:33:01.745Z,13.50
2019-04-28T15:35:29.738Z,13.40
2019-04-28T15:37:57.733Z,13.20
2019-04-28T15:40:25.741Z,13.50
2019-04-28T15:42:53.740Z,13.60
2019-04-28T15:45:21.799Z,13.70
2019-04-28T15:47:49.795Z,13.50
2019-04-28T15:50:17.809Z,13.20
2019-04-28T15:52:45.879Z,13.30
2019-04-28T15:55:15.611Z,13.10
2019-04-28T15:57:43.589Z,13.10
2019-04-28T16:00:13.566Z,13.40
2019-04-28T16:02:41.564Z,13.60
2019-04-28T16:05:09.641Z,13.80
2019-04-28T16:07:37.626Z,13.90
2019-04-28T16:10:06.109Z,13.70
2019-04-28T16:12:34.200Z,13.70
2019-04-28T16:15:02.285Z,13.50
2019-04-28T16:17:30.264Z,13.20
2019-04-28T16:19:58.354Z,12.80
2019-04-28T16:22:26.360Z,12.80
2019-04-28T16:24:54.460Z,12.80
2019-04-28T16:27:22.435Z,13.20
2019-04-28T16:29:50.430Z,13.10
2019-04-28T16:32:18.580Z,12.90
2019-04-28T16:34:46.771Z,13.00
2019-04-28T16:37:14.827Z,13.20
2019-04-28T16:39:42.819Z,13.80
2019-04-28T16:42:11.627Z,13.60
2019-04-28T16:44:39.711Z,13.30
2019-04-28T16:47:13.270Z,13.40
2019-04-28T16:49:41.406Z,13.20
2019-04-28T16:52:09.400Z,13.40
2019-04-28T16:54:37.447Z,13.40
2019-04-28T16:57:07.199Z,13.50
2019-04-28T16:59:55.367Z,13.50
2019-04-28T17:02:25.002Z,13.60
2019-04-28T17:04:52.989Z,13.70
2019-04-28T17:07:21.048Z,13.70
2019-04-28T17:09:49.045Z,13.70
2019-04-28T17:12:17.157Z,13.70
2019-04-28T17:14:45.224Z,13.60
2019-04-28T17:17:13.225Z,13.50
2019-04-28T17:19:41.289Z,13.70
2019-04-28T17:22:09.319Z,13.70
2019-04-28T17:24:37.416Z,13.50
2019-04-28T17:27:05.521Z,13.40
2019-04-28T17:29:34.066Z,13.10
2019-04-28T17:32:02.063Z,13.00
2019-04-28T17:34:30.164Z,13.00
2019-04-28T17:36:58.258Z,13.20
2019-04-28T17:39:26.721Z,13.50
2019-04-28T17:41:54.809Z,13.40
2019-04-28T17:44:22.939Z,13.10
2019-04-28T17:46:51.158Z,12.80
2019-04-28T17:49:21.018Z,12.60
2019-04-28T17:51:49.242Z,12.60
2019-04-28T17:54:17.380Z,12.50
2019-04-28T17:56:45.499Z,12.40
2019-04-28T17:59:13.606Z,12.30
2019-04-28T18:01:49.072Z,12.30
2019-04-28T18:04:35.236Z,12.10
2019-04-28T18:07:07.474Z,12.20
2019-04-28T18:09:35.551Z,12.10
2019-04-28T18:12:03.769Z,12.20
2019-04-28T18:14:32.097Z,12.10
2019-04-28T18:17:01.817Z,12.10
2019-04-28T18:19:30.465Z,12.10
2019-04-28T18:21:58.569Z,12.00
2019-04-28T18:24:26.653Z,12.00
2019-04-28T18:26:54.884Z,12.00
2019-04-28T18:29:24.049Z,12.10
2019-04-28T18:32:10.447Z,12.10
2019-04-28T18:34:49.015Z,12.30
2019-04-28T18:37:35.269Z,12.60
2019-04-28T18:40:06.193Z,12.50
2019-04-28T18:42:44.724Z,12.20
2019-04-28T18:45:13.118Z,12.00
2019-04-28T18:47:41.213Z,11.80
2019-04-28T18:50:09.395Z,11.90
2019-04-28T18:52:37.406Z,11.80
2019-04-28T18:55:06.562Z,11.80
2019-04-28T18:57:34.677Z,11.80
2019-04-28T19:00:03.005Z,11.70
2019-04-28T19:02:32.777Z,11.50
2019-04-28T19:05:00.898Z,11.60
2019-04-28T19:07:33.578Z,11.40
2019-04-28T19:10:03.385Z,11.60
2019-04-28T19:12:38.882Z,12.00
2019-04-28T19:15:08.672Z,11.80
2019-04-28T19:17:54.773Z,11.70
2019-04-28T19:20:22.898Z,11.50
2019-04-28T19:22:51.058Z,11.20
2019-04-28T19:25:20.346Z,11.10
2019-04-28T19:27:48.443Z,11.00
2019-04-28T19:30:17.129Z,11.10
2019-04-28T19:32:45.294Z,11.10
2019-04-28T19:35:14.678Z,11.20
2019-04-28T19:37:42.876Z,11.20
2019-04-28T19:40:11.185Z,11.20
2019-04-28T19:42:39.212Z,11.20
2019-04-28T19:45:11.763Z,11.20
2019-04-28T19:47:38.574Z,11.20
2019-04-28T19:50:06.807Z,11.40
2019-04-28T19:52:35.282Z,11.40
2019-04-28T19:55:06.065Z,11.20
2019-04-28T19:57:48.254Z,11.10
2019-04-28T20:00:18.450Z,11.20
2019-04-28T20:02:48.244Z,11.00
2019-04-28T20:05:16.469Z,10.70
2019-04-28T20:07:44.941Z,10.70
2019-04-28T20:10:15.517Z,10.40
2019-04-28T20:12:45.764Z,10.20
2019-04-28T20:15:15.596Z,10.00
2019-04-28T20:17:46.313Z,9.90
2019-04-28T20:20:17.559Z,9.80
2019-04-28T20:22:47.057Z,9.60
2019-04-28T20:25:15.389Z,9.50
2019-04-28T20:27:43.376Z,9.60
2019-04-28T20:30:11.708Z,9.60
2019-04-28T20:32:44.599Z,9.80
2019-04-28T20:35:14.457Z,9.90
2019-04-28T20:37:44.140Z,10.00
2019-04-28T20:40:15.152Z,9.90
2019-04-28T20:42:45.040Z,10.00
2019-04-28T20:45:15.243Z,10.00
2019-04-28T20:47:43.364Z,10.10
2019-04-28T20:50:12.634Z,10.40
2019-04-28T20:52:40.854Z,10.60
2019-04-28T20:55:09.158Z,10.90
2019-04-28T20:57:37.258Z,11.20
2019-04-28T21:00:26.082Z,11.40
2019-04-28T21:02:54.148Z,11.50
2019-04-28T21:05:22.162Z,11.30
2019-04-28T21:07:50.238Z,10.70
2019-04-28T21:10:18.525Z,10.90
2019-04-28T21:12:46.575Z,10.40
2019-04-28T21:15:15.061Z,10.50
2019-04-28T21:17:43.131Z,10.70
2019-04-28T21:20:11.134Z,10.40
2019-04-28T21:22:39.189Z,10.50
2019-04-28T21:25:07.293Z,10.60
2019-04-28T21:27:35.440Z,10.70
2019-04-28T21:30:03.758Z,10.70
2019-04-28T21:32:31.749Z,10.80
2019-04-28T21:34:59.743Z,10.80
2019-04-28T21:37:27.732Z,10.70
2019-04-28T21:39:55.789Z,10.60
2019-04-28T21:42:25.418Z,10.20
2019-04-28T21:45:00.771Z,10.10
2019-04-28T21:47:30.592Z,10.10
2019-04-28T21:49:58.703Z,10.00
2019-04-28T21:52:26.689Z,10.00
2019-04-28T21:54:54.671Z,9.90
2019-04-28T21:57:22.654Z,9.90
2019-04-28T21:59:50.657Z,9.80
2019-04-28T22:02:18.633Z,9.60
2019-04-28T22:04:47.097Z,9.70
2019-04-28T22:07:15.437Z,10.00
2019-04-28T22:09:43.416Z,9.90
2019-04-28T22:12:11.397Z,9.90
2019-04-28T22:14:39.375Z,9.90
2019-04-28T22:17:07.381Z,9.90
2019-04-28T22:19:35.357Z,9.90
2019-04-28T22:22:03.351Z,9.90
2019-04-28T22:24:33.038Z,10.10
2019-04-28T22:27:01.022Z,10.00
2019-04-28T22:29:29.001Z,9.90
2019-04-28T22:31:57.015Z,9.90
2019-04-28T22:34:25.184Z,9.90
2019-04-28T22:36:53.434Z,9.90
2019-04-28T22:39:21.468Z,9.90
2019-04-28T22:41:49.474Z,10.00
2019-04-28T22:44:17.456Z,9.90
2019-04-28T22:46:45.491Z,10.00
2019-04-28T22:49:13.734Z,9.90
2019-04-28T22:51:41.735Z,9.90
2019-04-28T22:54:17.188Z,9.90
2019-04-28T22:56:46.815Z,9.90
2019-04-28T22:59:28.227Z,9.90
